Time;durP1;ratioP1;P1;durP2;ratioP2;P2;SDS_P1;SDS_P2;PMS_P1;PMS_P2;Temp;Humidity;BMP_temperature;BMP_pressure;BME280_temperature;BME280_humidity;BME280_pressure;Samples;Min_cycle;Max_cycle;Signal;HPM_P1;HPM_P2
2021/09/01 00:02:21;;;;;;;12.40;7.90;;;14.70;99.90;;;;;;5127567;27;20213;-51
2021/09/01 00:04:47;;;;;;;18.87;8.57;;;14.70;99.90;;;;;;5122344;27;20185;-51
2021/09/01 00:07:14;;;;;;;20.67;7.97;;;14.70;99.90;;;;;;5125500;28;20576;-55
2021/09/01 00:09:41;;;;;;;19.87;8.70;;;14.70;99.90;;;;;;5108802;27;20201;-51
2021/09/01 00:12:08;;;;;;;20.00;8.63;;;14.70;99.90;;;;;;5109800;28;20181;-50
2021/09/01 00:14:35;;;;;;;19.00;9.20;;;14.70;99.90;;;;;;5109952;27;20694;-54
2021/09/01 00:17:04;;;;;;;15.63;8.97;;;14.70;99.90;;;;;;5118742;27;20223;-48
2021/09/01 00:19:30;;;;;;;20.63;9.00;;;14.70;99.90;;;;;;5118385;28;20586;-53
2021/09/01 00:21:57;;;;;;;15.73;8.97;;;14.60;99.90;;;;;;5124782;27;20200;-54
2021/09/01 00:24:24;;;;;;;18.87;9.03;;;14.70;99.90;;;;;;5115161;27;20205;-53
2021/09/01 00:26:50;;;;;;;11.40;7.80;;;14.70;99.90;;;;;;5110910;27;20809;-50
2021/09/01 00:29:17;;;;;;;18.63;8.03;;;14.70;99.90;;;;;;5106833;27;20691;-53
2021/09/01 00:31:43;;;;;;;13.07;7.90;;;14.70;99.90;;;;;;5130228;27;20195;-49
2021/09/01 00:34:11;;;;;;;16.20;9.33;;;14.80;99.90;;;;;;5126323;27;20227;-55
2021/09/01 00:36:38;;;;;;;19.80;8.53;;;14.70;99.90;;;;;;5130211;27;20196;-52
2021/09/01 00:39:05;;;;;;;14.40;8.60;;;14.70;99.90;;;;;;5120499;27;20334;-51
2021/09/01 00:41:31;;;;;;;17.17;8.40;;;14.70;99.90;;;;;;5129216;27;20199;-52
2021/09/01 00:44:00;;;;;;;16.53;8.33;;;14.60;99.90;;;;;;5106751;27;20221;-51
2021/09/01 00:46:27;;;;;;;12.93;7.50;;;14.70;99.90;;;;;;5125589;27;20204;-48
2021/09/01 00:48:55;;;;;;;15.47;7.43;;;14.70;99.90;;;;;;5126096;27;20202;-47
2021/09/01 00:51:23;;;;;;;15.73;7.67;;;14.70;99.90;;;;;;5104976;27;20199;-49
2021/09/01 00:53:49;;;;;;;18.20;7.63;;;14.70;99.90;;;;;;5107001;28;20210;-56
2021/09/01 00:56:17;;;;;;;13.10;7.83;;;14.70;99.90;;;;;;5107693;27;20189;-56
2021/09/01 00:58:47;;;;;;;18.47;9.10;;;14.70;99.90;;;;;;5130765;27;20200;-53
2021/09/01 01:01:16;;;;;;;14.53;7.80;;;14.60;99.90;;;;;;5111655;27;20196;-52
2021/09/01 01:03:46;;;;;;;13.40;7.63;;;14.70;99.90;;;;;;5123050;27;20235;-55
2021/09/01 01:06:13;;;;;;;16.27;8.03;;;14.60;99.90;;;;;;5102578;27;20189;-57
2021/09/01 01:08:41;;;;;;;15.00;7.30;;;14.60;99.90;;;;;;5109773;27;20575;-54
2021/09/01 01:11:12;;;;;;;17.83;7.43;;;14.60;99.90;;;;;;5125123;27;20193;-48
2021/09/01 01:13:40;;;;;;;19.07;7.63;;;14.60;99.90;;;;;;5110094;27;20265;-56
2021/09/01 01:16:07;;;;;;;17.03;7.97;;;14.60;99.90;;;;;;5112001;27;20200;-51
2021/09/01 01:18:34;;;;;;;14.57;7.60;;;14.60;99.90;;;;;;5126330;27;20245;-49
2021/09/01 01:21:00;;;;;;;12.93;8.20;;;14.70;99.90;;;;;;5112092;27;20565;-48
2021/09/01 01:23:27;;;;;;;14.80;7.43;;;14.60;99.90;;;;;;5119814;27;20212;-53
2021/09/01 01:25:56;;;;;;;15.27;6.90;;;14.60;99.90;;;;;;5124063;27;20204;-50
2021/09/01 01:28:23;;;;;;;16.33;7.00;;;14.60;99.90;;;;;;5126175;27;20189;-52
2021/09/01 01:30:50;;;;;;;23.60;7.23;;;14.60;99.90;;;;;;5126505;27;20196;-49
2021/09/01 01:33:16;;;;;;;14.37;7.40;;;14.60;99.90;;;;;;5110396;27;20940;-48
2021/09/01 01:35:46;;;;;;;16.47;7.00;;;14.60;99.90;;;;;;5122878;27;20196;-51
2021/09/01 01:38:15;;;;;;;12.03;7.23;;;14.60;99.90;;;;;;5122411;27;20210;-55
2021/09/01 01:40:42;;;;;;;13.50;7.40;;;14.60;99.90;;;;;;5124569;27;20208;-49
2021/09/01 01:43:11;;;;;;;13.57;7.10;;;14.60;99.90;;;;;;5101741;28;20213;-45
2021/09/01 01:45:39;;;;;;;15.30;7.57;;;14.60;99.90;;;;;;5122713;27;20188;-47
2021/09/01 01:48:07;;;;;;;12.60;7.07;;;14.60;99.90;;;;;;5105745;27;20207;-44
2021/09/01 01:50:35;;;;;;;15.13;8.33;;;14.60;99.90;;;;;;5125044;27;20556;-48
2021/09/01 01:53:02;;;;;;;16.83;9.20;;;14.60;99.90;;;;;;5123307;27;20213;-47
2021/09/01 01:55:29;;;;;;;14.13;8.33;;;14.60;99.90;;;;;;5121308;27;20208;-47
2021/09/01 01:57:56;;;;;;;15.07;9.43;;;14.70;99.90;;;;;;5120171;27;20204;-47
2021/09/01 02:00:24;;;;;;;16.40;9.13;;;14.60;99.90;;;;;;5134078;27;20204;-45
2021/09/01 02:02:51;;;;;;;18.13;9.13;;;14.70;99.90;;;;;;5110688;27;20231;-42
2021/09/01 02:05:18;;;;;;;13.60;8.73;;;14.70;99.90;;;;;;5111344;27;20222;-48
2021/09/01 02:07:45;;;;;;;17.77;7.63;;;14.60;99.90;;;;;;5124806;27;20188;-49
2021/09/01 02:10:13;;;;;;;17.90;9.07;;;14.60;99.90;;;;;;5120771;27;20191;-46
2021/09/01 02:12:41;;;;;;;16.73;8.47;;;14.70;99.90;;;;;;5124191;27;20592;-44
2021/09/01 02:15:10;;;;;;;15.00;8.37;;;14.70;99.90;;;;;;5121973;27;20207;-42
2021/09/01 02:17:38;;;;;;;18.80;9.33;;;14.70;99.90;;;;;;5108691;27;20201;-48
2021/09/01 02:20:07;;;;;;;18.23;7.70;;;14.60;99.90;;;;;;5122442;27;20223;-41
2021/09/01 02:22:34;;;;;;;15.47;8.00;;;14.60;99.90;;;;;;5125144;27;20297;-45
2021/09/01 02:25:01;;;;;;;17.13;8.37;;;14.60;99.90;;;;;;5116734;27;20205;-42
2021/09/01 02:27:27;;;;;;;16.03;7.77;;;14.70;99.90;;;;;;5121489;27;20195;-47
2021/09/01 02:29:54;;;;;;;16.10;8.37;;;14.60;99.90;;;;;;5125226;27;20724;-43
2021/09/01 02:32:21;;;;;;;16.20;7.37;;;14.60;99.90;;;;;;5103287;27;20224;-48
2021/09/01 02:34:49;;;;;;;11.87;7.50;;;14.70;99.90;;;;;;5105297;27;20201;-50
2021/09/01 02:37:16;;;;;;;14.63;7.27;;;14.70;99.90;;;;;;5120278;27;20936;-49
2021/09/01 02:39:42;;;;;;;13.77;6.57;;;14.60;99.90;;;;;;5117588;27;20227;-49
2021/09/01 02:42:09;;;;;;;15.27;7.27;;;14.60;99.90;;;;;;5100769;28;20201;-43
2021/09/01 02:44:36;;;;;;;16.00;7.90;;;14.70;99.90;;;;;;5113053;27;20184;-48
2021/09/01 02:47:03;;;;;;;12.97;7.20;;;14.70;99.90;;;;;;5119581;27;20189;-43
2021/09/01 02:49:30;;;;;;;18.20;7.83;;;14.70;99.90;;;;;;5100732;27;20201;-49
2021/09/01 02:51:58;;;;;;;14.87;6.83;;;14.70;99.90;;;;;;5122053;27;20197;-47
2021/09/01 02:54:24;;;;;;;12.53;7.10;;;14.70;99.90;;;;;;5119238;27;20200;-47
2021/09/01 02:56:51;;;;;;;11.03;7.27;;;14.70;99.90;;;;;;5109267;27;20197;-47
2021/09/01 02:59:18;;;;;;;13.03;7.03;;;14.70;99.90;;;;;;5131861;27;20212;-50
2021/09/01 03:01:44;;;;;;;18.23;7.77;;;14.70;99.90;;;;;;5138687;27;20204;-51
2021/09/01 03:04:11;;;;;;;12.83;7.33;;;14.70;99.90;;;;;;5089120;27;20229;-45
2021/09/01 03:06:38;;;;;;;16.53;8.00;;;14.60;99.90;;;;;;5120367;27;20190;-42
2021/09/01 03:09:06;;;;;;;14.97;7.60;;;14.60;99.90;;;;;;5121283;27;20197;-44
2021/09/01 03:11:32;;;;;;;20.70;7.97;;;14.60;99.90;;;;;;5124003;27;20657;-47
2021/09/01 03:13:59;;;;;;;16.37;8.27;;;14.60;99.90;;;;;;5118022;27;20209;-41
2021/09/01 03:16:25;;;;;;;13.13;7.57;;;14.60;99.90;;;;;;5110830;27;20188;-48
2021/09/01 03:18:52;;;;;;;17.80;8.07;;;14.60;99.90;;;;;;5117344;27;20189;-45
2021/09/01 03:21:19;;;;;;;16.77;8.23;;;14.60;99.90;;;;;;5101673;27;20212;-49
2021/09/01 03:23:46;;;;;;;20.00;8.50;;;14.60;99.90;;;;;;5116568;27;20224;-48
2021/09/01 03:26:14;;;;;;;16.70;8.23;;;14.60;99.90;;;;;;5099975;28;20185;-46
2021/09/01 03:28:40;;;;;;;24.10;9.30;;;14.60;99.90;;;;;;5124010;27;20650;-44
2021/09/01 03:31:07;;;;;;;20.43;9.00;;;14.60;99.90;;;;;;5112888;27;20193;-43
2021/09/01 03:33:34;;;;;;;17.10;9.33;;;14.50;99.90;;;;;;5104615;28;20287;-46
2021/09/01 03:36:00;;;;;;;18.67;9.07;;;14.60;99.90;;;;;;5110998;27;20193;-43
2021/09/01 03:38:27;;;;;;;17.70;9.60;;;14.60;99.90;;;;;;5110794;27;20281;-50
2021/09/01 03:40:54;;;;;;;19.60;8.60;;;14.60;99.90;;;;;;5122944;27;20215;-41
2021/09/01 03:43:22;;;;;;;12.73;9.07;;;14.50;99.90;;;;;;5121739;27;20423;-48
2021/09/01 03:45:48;;;;;;;19.03;8.37;;;14.50;99.90;;;;;;5119886;27;20204;-46
2021/09/01 03:48:15;;;;;;;15.33;9.40;;;14.60;99.90;;;;;;5099048;28;20190;-49
2021/09/01 03:50:41;;;;;;;16.20;8.40;;;14.50;99.90;;;;;;5108710;28;20197;-49
2021/09/01 03:53:08;;;;;;;19.97;9.00;;;14.50;99.90;;;;;;5104092;27;20232;-43
2021/09/01 03:55:34;;;;;;;18.47;9.70;;;14.50;99.90;;;;;;5117050;27;20826;-49
2021/09/01 03:58:01;;;;;;;14.30;9.33;;;14.40;99.90;;;;;;5120077;27;20196;-44
2021/09/01 04:00:29;;;;;;;16.67;9.47;;;14.40;99.90;;;;;;5130765;27;20838;-49
2021/09/01 04:02:56;;;;;;;24.80;10.07;;;14.40;99.90;;;;;;5127441;27;20216;-45
2021/09/01 04:05:23;;;;;;;16.43;10.07;;;14.40;99.90;;;;;;5111755;27;20189;-47
2021/09/01 04:07:50;;;;;;;22.57;9.27;;;14.40;99.90;;;;;;5114382;27;20646;-50
2021/09/01 04:10:17;;;;;;;18.63;10.00;;;14.40;99.90;;;;;;5129815;27;20287;-45
2021/09/01 04:12:43;;;;;;;18.43;10.70;;;14.40;99.90;;;;;;5131394;27;20212;-50
2021/09/01 04:15:10;;;;;;;20.63;10.03;;;14.40;99.90;;;;;;5114781;27;20558;-43
2021/09/01 04:17:38;;;;;;;14.83;9.63;;;14.40;99.90;;;;;;5107638;27;20193;-48
2021/09/01 04:20:07;;;;;;;20.40;11.20;;;14.40;99.90;;;;;;5112297;27;20204;-45
2021/09/01 04:22:34;;;;;;;22.03;10.73;;;14.40;99.90;;;;;;5112516;27;20736;-50
2021/09/01 04:25:00;;;;;;;19.67;9.67;;;14.40;99.90;;;;;;5125506;27;20192;-43
2021/09/01 04:27:27;;;;;;;23.23;11.40;;;14.40;99.90;;;;;;5126014;27;20196;-52
2021/09/01 04:29:53;;;;;;;22.23;11.37;;;14.40;99.90;;;;;;5125209;27;20197;-47
2021/09/01 04:32:20;;;;;;;20.10;10.63;;;14.40;99.90;;;;;;5124946;27;20196;-48
2021/09/01 04:34:48;;;;;;;23.07;10.90;;;14.40;99.90;;;;;;5119873;27;20549;-48
2021/09/01 04:37:15;;;;;;;21.40;10.00;;;14.40;99.90;;;;;;5105674;27;20215;-47
2021/09/01 04:39:41;;;;;;;19.40;10.77;;;14.40;99.90;;;;;;5110620;27;20972;-52
2021/09/01 04:42:08;;;;;;;16.50;10.27;;;14.40;99.90;;;;;;5110988;27;20189;-46
2021/09/01 04:44:35;;;;;;;23.13;10.53;;;14.40;99.90;;;;;;5114434;27;20209;-48
2021/09/01 04:47:01;;;;;;;22.17;10.33;;;14.40;99.90;;;;;;5112539;27;20205;-46
2021/09/01 04:49:28;;;;;;;16.63;10.67;;;14.40;99.90;;;;;;5108863;27;20196;-45
2021/09/01 04:51:56;;;;;;;17.93;10.80;;;14.40;99.90;;;;;;5117343;27;20196;-48
2021/09/01 04:54:23;;;;;;;20.23;10.60;;;14.40;99.90;;;;;;5107325;27;20916;-50
2021/09/01 04:56:50;;;;;;;22.13;11.40;;;14.50;99.90;;;;;;5114160;27;20228;-46
2021/09/01 04:59:16;;;;;;;17.03;9.20;;;14.40;99.90;;;;;;5124374;27;20197;-43
2021/09/01 05:01:43;;;;;;;19.20;10.77;;;14.40;99.90;;;;;;5121093;27;20223;-46
2021/09/01 05:04:10;;;;;;;18.97;10.23;;;14.40;99.90;;;;;;5117469;27;20224;-44
2021/09/01 05:06:36;;;;;;;21.67;10.87;;;14.40;99.90;;;;;;5120312;27;20788;-44
2021/09/01 05:09:04;;;;;;;19.40;10.00;;;14.40;99.90;;;;;;5106102;27;20689;-42
2021/09/01 05:11:31;;;;;;;20.73;9.63;;;14.40;99.90;;;;;;5123510;27;20194;-49
2021/09/01 05:13:57;;;;;;;15.33;9.20;;;14.40;99.90;;;;;;5119046;27;21577;-48
2021/09/01 05:16:24;;;;;;;17.90;11.23;;;14.40;99.90;;;;;;5118431;27;20197;-49
2021/09/01 05:18:51;;;;;;;19.70;10.60;;;14.40;99.90;;;;;;5121510;27;20193;-47
2021/09/01 05:21:18;;;;;;;24.63;11.07;;;14.40;99.90;;;;;;5118428;27;20217;-45
2021/09/01 05:23:49;;;;;;;23.27;11.33;;;14.40;99.90;;;;;;5115320;27;20210;-47
2021/09/01 05:26:21;;;;;;;18.97;10.57;;;14.40;99.90;;;;;;5105833;27;20208;-41
2021/09/01 05:28:49;;;;;;;18.83;11.07;;;14.50;99.90;;;;;;5127606;27;20192;-44
2021/09/01 05:31:18;;;;;;;21.17;10.87;;;14.40;99.90;;;;;;5109564;27;20208;-47
2021/09/01 05:33:50;;;;;;;18.10;12.07;;;14.50;99.90;;;;;;5119527;27;20224;-47
2021/09/01 05:36:17;;;;;;;23.20;11.67;;;14.40;99.90;;;;;;5110418;27;20200;-46
2021/09/01 05:38:46;;;;;;;17.27;11.27;;;14.40;99.90;;;;;;5120717;27;20224;-47
2021/09/01 05:41:13;;;;;;;18.87;12.40;;;14.40;99.90;;;;;;5092734;27;20248;-50
2021/09/01 05:43:43;;;;;;;19.30;11.10;;;14.40;99.90;;;;;;5113722;27;20217;-43
2021/09/01 05:46:11;;;;;;;17.63;11.67;;;14.40;99.90;;;;;;5113123;27;20212;-46
2021/09/01 05:48:39;;;;;;;21.30;11.70;;;14.40;99.90;;;;;;5108315;27;20188;-42
2021/09/01 05:51:07;;;;;;;25.07;14.13;;;14.40;99.90;;;;;;5118061;27;20188;-49
2021/09/01 05:53:33;;;;;;;23.07;13.33;;;14.40;99.90;;;;;;5117798;27;20841;-42
2021/09/01 05:56:06;;;;;;;22.30;13.80;;;14.40;99.90;;;;;;5097292;27;20808;-47
2021/09/01 05:58:34;;;;;;;21.37;12.93;;;14.40;99.90;;;;;;5119222;27;20201;-42
2021/09/01 06:01:03;;;;;;;21.70;13.20;;;14.40;99.90;;;;;;5121787;27;20223;-49
2021/09/01 06:03:32;;;;;;;26.20;12.93;;;14.40;99.90;;;;;;5118993;27;20228;-44
2021/09/01 06:06:01;;;;;;;23.27;12.40;;;14.50;99.90;;;;;;5117124;27;20385;-48
2021/09/01 06:08:32;;;;;;;22.27;12.43;;;14.50;99.90;;;;;;5118525;27;20292;-43
2021/09/01 06:11:01;;;;;;;19.80;12.60;;;14.50;99.90;;;;;;5099401;27;20314;-49
2021/09/01 06:13:28;;;;;;;23.10;12.33;;;14.60;99.90;;;;;;5117160;27;20212;-43
2021/09/01 06:15:55;;;;;;;22.50;11.87;;;14.50;99.90;;;;;;5111769;27;20201;-45
2021/09/01 06:18:23;;;;;;;18.90;11.90;;;14.50;99.90;;;;;;5112684;27;20673;-43
2021/09/01 06:20:50;;;;;;;19.77;12.50;;;14.60;99.90;;;;;;5110887;27;20201;-47
2021/09/01 06:23:17;;;;;;;17.63;10.67;;;14.60;99.90;;;;;;5106010;27;20654;-45
2021/09/01 06:25:43;;;;;;;17.70;11.80;;;14.60;99.90;;;;;;5103222;27;20190;-47
2021/09/01 06:28:10;;;;;;;19.93;11.97;;;14.60;99.90;;;;;;5109748;27;20299;-49
2021/09/01 06:30:37;;;;;;;17.87;10.80;;;14.70;99.90;;;;;;5116274;27;20188;-42
2021/09/01 06:33:04;;;;;;;17.27;10.83;;;14.60;99.90;;;;;;5108127;27;20223;-47
2021/09/01 06:35:32;;;;;;;21.13;10.33;;;14.50;99.90;;;;;;5115747;27;20729;-43
2021/09/01 06:37:59;;;;;;;18.53;10.67;;;14.60;99.90;;;;;;5101905;27;20827;-42
2021/09/01 06:40:26;;;;;;;17.50;11.17;;;14.60;99.90;;;;;;5117610;27;20239;-46
2021/09/01 06:42:53;;;;;;;18.60;9.77;;;14.70;99.90;;;;;;5102179;27;20223;-43
2021/09/01 06:45:20;;;;;;;17.77;9.93;;;14.70;99.90;;;;;;5115958;27;20202;-46
2021/09/01 06:47:49;;;;;;;18.30;10.17;;;14.70;99.90;;;;;;5124891;27;20204;-45
2021/09/01 06:50:17;;;;;;;15.60;9.97;;;14.70;99.90;;;;;;5117491;27;20437;-48
2021/09/01 06:52:46;;;;;;;16.63;10.13;;;14.80;99.90;;;;;;5125763;27;20960;-43
2021/09/01 06:55:14;;;;;;;17.80;9.47;;;14.90;99.90;;;;;;5117603;27;20207;-47
2021/09/01 06:57:41;;;;;;;15.17;9.53;;;14.90;99.90;;;;;;5106995;27;20674;-42
2021/09/01 07:00:09;;;;;;;13.50;9.40;;;14.90;99.90;;;;;;5116472;27;21011;-45
2021/09/01 07:02:36;;;;;;;15.27;8.77;;;15.00;99.90;;;;;;5097329;27;20229;-45
2021/09/01 07:05:03;;;;;;;13.93;9.43;;;15.00;99.90;;;;;;5114109;27;20195;-45
2021/09/01 07:07:30;;;;;;;14.83;9.33;;;15.10;99.90;;;;;;5107543;27;20204;-45
2021/09/01 07:09:58;;;;;;;15.30;10.33;;;15.20;99.90;;;;;;5115397;27;20193;-46
2021/09/01 07:12:27;;;;;;;13.33;10.43;;;15.20;99.90;;;;;;5097359;27;20205;-43
2021/09/01 07:14:54;;;;;;;15.70;9.70;;;15.20;99.90;;;;;;5121935;27;20197;-49
2021/09/01 07:17:20;;;;;;;18.13;9.27;;;15.30;99.90;;;;;;5106653;27;20236;-44
2021/09/01 07:19:47;;;;;;;15.83;9.53;;;15.30;99.90;;;;;;5101308;27;20205;-47
2021/09/01 07:22:14;;;;;;;17.53;10.23;;;15.40;99.90;;;;;;5110887;27;20212;-46
2021/09/01 07:24:40;;;;;;;15.40;10.20;;;15.40;99.90;;;;;;5104358;27;20205;-45
2021/09/01 07:27:08;;;;;;;18.10;9.63;;;15.40;99.90;;;;;;5118742;27;20199;-44
2021/09/01 07:29:35;;;;;;;11.33;8.40;;;15.50;99.90;;;;;;5104681;27;20989;-45
2021/09/01 07:32:02;;;;;;;16.97;8.83;;;15.50;99.90;;;;;;5107617;27;20181;-45
2021/09/01 07:34:28;;;;;;;16.10;9.67;;;15.50;99.90;;;;;;5108824;27;20216;-47
2021/09/01 07:36:55;;;;;;;14.10;8.50;;;15.60;99.90;;;;;;5119909;27;20212;-44
2021/09/01 07:39:23;;;;;;;12.50;8.17;;;15.60;99.90;;;;;;5105573;27;20472;-49
2021/09/01 07:41:50;;;;;;;17.80;9.03;;;15.80;99.90;;;;;;5115809;27;20305;-49
2021/09/01 07:44:18;;;;;;;13.80;8.73;;;15.90;99.90;;;;;;5101853;27;20216;-42
2021/09/01 07:46:45;;;;;;;16.33;10.07;;;15.90;99.90;;;;;;5115636;27;20192;-47
2021/09/01 07:49:12;;;;;;;12.63;9.63;;;16.00;99.90;;;;;;5107115;27;20199;-43
2021/09/01 07:51:39;;;;;;;18.07;10.30;;;16.10;99.90;;;;;;5117425;27;20197;-45
2021/09/01 07:54:05;;;;;;;14.50;10.60;;;16.20;99.90;;;;;;5112796;27;20220;-42
2021/09/01 07:56:32;;;;;;;14.77;9.13;;;16.30;99.90;;;;;;5107816;27;20186;-47
2021/09/01 07:58:58;;;;;;;15.90;10.37;;;16.30;99.90;;;;;;5118227;27;20199;-42
2021/09/01 08:01:26;;;;;;;12.27;9.63;;;16.40;99.90;;;;;;5109595;27;20243;-49
2021/09/01 08:03:53;;;;;;;16.40;9.60;;;16.40;99.90;;;;;;5121523;27;20216;-48
2021/09/01 08:06:19;;;;;;;17.10;9.33;;;16.40;99.90;;;;;;5100201;27;20197;-44
2021/09/01 08:08:47;;;;;;;18.73;10.10;;;16.60;99.90;;;;;;5111134;27;20242;-48
2021/09/01 08:11:13;;;;;;;11.17;9.00;;;16.70;99.90;;;;;;5105591;28;20540;-44
2021/09/01 08:13:40;;;;;;;14.33;9.53;;;16.70;99.90;;;;;;5110348;28;20217;-46
2021/09/01 08:16:08;;;;;;;15.73;8.03;;;16.70;99.90;;;;;;5104309;27;20204;-45
2021/09/01 08:18:36;;;;;;;10.20;8.73;;;16.80;99.90;;;;;;5116798;27;20209;-49
2021/09/01 08:21:03;;;;;;;12.27;8.27;;;16.90;99.90;;;;;;5116739;27;20209;-44
2021/09/01 08:23:30;;;;;;;13.47;8.67;;;17.00;99.90;;;;;;5132298;27;20215;-46
2021/09/01 08:25:56;;;;;;;10.57;8.17;;;17.10;99.90;;;;;;5121956;27;20202;-45
2021/09/01 08:28:23;;;;;;;11.37;7.37;;;17.20;99.90;;;;;;5125425;27;20195;-50
2021/09/01 08:30:50;;;;;;;12.67;8.60;;;17.30;99.90;;;;;;5123876;27;20189;-46
2021/09/01 08:33:17;;;;;;;11.70;7.37;;;17.40;99.90;;;;;;5104265;27;20221;-42
2021/09/01 08:35:45;;;;;;;10.67;8.30;;;17.50;99.90;;;;;;5110911;27;20213;-47
2021/09/01 08:38:11;;;;;;;14.37;7.53;;;17.60;99.90;;;;;;5121647;27;20199;-45
2021/09/01 08:40:38;;;;;;;9.27;7.10;;;17.70;99.90;;;;;;5117658;27;20196;-46
2021/09/01 08:43:06;;;;;;;12.23;8.13;;;17.80;99.90;;;;;;5110633;27;20217;-43
2021/09/01 08:45:33;;;;;;;12.37;7.80;;;17.90;99.90;;;;;;5114712;27;20198;-47
2021/09/01 08:48:01;;;;;;;11.20;7.77;;;18.00;99.90;;;;;;5111281;27;20211;-43
2021/09/01 08:50:29;;;;;;;18.40;8.30;;;18.10;99.90;;;;;;5119597;27;20223;-48
2021/09/01 08:52:57;;;;;;;10.13;7.30;;;18.10;99.90;;;;;;5118051;27;20220;-50
2021/09/01 08:55:24;;;;;;;11.53;7.40;;;18.20;99.90;;;;;;5114454;27;20204;-48
2021/09/01 08:57:51;;;;;;;12.37;6.67;;;18.30;99.90;;;;;;5121817;27;20230;-48
2021/09/01 09:00:18;;;;;;;12.77;7.37;;;18.40;99.90;;;;;;5127169;27;20196;-45
2021/09/01 09:02:55;;;;;;;12.33;7.00;;;18.50;99.90;;;;;;5111940;27;20228;-47
2021/09/01 09:05:34;;;;;;;8.17;6.47;;;18.60;99.90;;;;;;5107768;27;20211;-49
2021/09/01 09:08:03;;;;;;;10.20;6.43;;;18.70;99.90;;;;;;5121056;27;20275;-43
2021/09/01 09:10:33;;;;;;;11.13;6.37;;;18.70;99.90;;;;;;5112245;27;20209;-45
2021/09/01 09:13:01;;;;;;;11.17;6.67;;;18.80;99.90;;;;;;5122277;27;20219;-44
2021/09/01 09:15:28;;;;;;;8.80;6.33;;;18.80;99.90;;;;;;5118531;27;20693;-45
2021/09/01 09:17:55;;;;;;;8.73;6.00;;;18.80;99.90;;;;;;5118702;27;20201;-50
2021/09/01 09:20:27;;;;;;;10.97;6.57;;;18.80;99.90;;;;;;5103202;27;20213;-45
2021/09/01 09:22:54;;;;;;;11.17;6.53;;;18.90;99.90;;;;;;5118349;27;20224;-46
2021/09/01 09:25:25;;;;;;;10.17;6.47;;;19.00;99.90;;;;;;5112693;27;20192;-50
2021/09/01 09:27:56;;;;;;;8.33;6.00;;;19.00;99.90;;;;;;5122176;27;20204;-50
2021/09/01 09:30:47;;;;;;;10.50;6.57;;;19.10;99.90;;;;;;5133382;27;20184;-47
2021/09/01 09:33:15;;;;;;;7.77;6.30;;;19.20;99.90;;;;;;5100361;27;20230;-42
2021/09/01 09:35:55;;;;;;;8.20;6.00;;;19.30;99.90;;;;;;5107618;27;20216;-47
2021/09/01 09:38:31;;;;;;;13.10;6.40;;;19.30;99.90;;;;;;5106673;27;20367;-48
2021/09/01 09:40:59;;;;;;;9.17;6.37;;;19.40;99.90;;;;;;5120719;27;20208;-46
2021/09/01 09:43:27;;;;;;;11.33;6.67;;;19.50;99.90;;;;;;5116330;27;20927;-48
2021/09/01 09:46:07;;;;;;;8.90;6.07;;;19.50;99.90;;;;;;5123991;27;20684;-49
2021/09/01 09:48:35;;;;;;;8.17;5.73;;;19.50;99.90;;;;;;5116743;27;20189;-49
2021/09/01 09:51:04;;;;;;;7.60;5.07;;;19.50;99.90;;;;;;5103443;27;20205;-46
2021/09/01 09:53:32;;;;;;;8.70;5.47;;;19.60;99.90;;;;;;5114046;27;20216;-47
2021/09/01 09:56:09;;;;;;;7.37;6.20;;;19.60;99.90;;;;;;5110352;27;20646;-47
2021/09/01 09:58:38;;;;;;;8.70;5.53;;;19.70;99.90;;;;;;5120461;27;20984;-45
2021/09/01 10:01:06;;;;;;;8.67;5.33;;;19.70;99.90;;;;;;5104888;27;20192;-44
2021/09/01 10:03:34;;;;;;;7.23;5.90;;;19.80;99.90;;;;;;5117916;27;20320;-45
2021/09/01 10:06:02;;;;;;;7.20;5.03;;;19.80;99.90;;;;;;5099800;27;20200;-47
2021/09/01 10:08:30;;;;;;;7.60;5.93;;;19.90;99.90;;;;;;5116404;27;20308;-45
2021/09/01 10:11:00;;;;;;;11.40;6.17;;;19.90;99.90;;;;;;5120825;27;20212;-47
2021/09/01 10:13:30;;;;;;;9.60;6.23;;;20.00;99.90;;;;;;5103878;27;20217;-44
2021/09/01 10:16:01;;;;;;;10.70;5.83;;;20.00;99.90;;;;;;5118753;27;20190;-49
2021/09/01 10:18:29;;;;;;;6.37;4.80;;;20.00;99.90;;;;;;5103648;27;20205;-43
2021/09/01 10:20:57;;;;;;;6.23;5.30;;;20.10;99.90;;;;;;5101450;27;20201;-46
2021/09/01 10:23:37;;;;;;;7.33;5.37;;;20.10;99.90;;;;;;5117544;27;20216;-44
2021/09/01 10:26:20;;;;;;;8.73;5.43;;;20.10;99.90;;;;;;5105256;27;20250;-48
2021/09/01 10:28:48;;;;;;;10.60;5.77;;;20.20;99.90;;;;;;5101755;27;20209;-50
2021/09/01 10:31:29;;;;;;;7.20;5.67;;;20.20;99.90;;;;;;5116435;27;20573;-47
2021/09/01 10:34:01;;;;;;;9.60;5.30;;;20.30;99.90;;;;;;5111829;27;20397;-45
2021/09/01 10:36:48;;;;;;;8.27;5.80;;;20.30;99.90;;;;;;5104554;27;20241;-42
2021/09/01 10:39:30;;;;;;;8.83;5.53;;;20.40;99.90;;;;;;5115106;27;20662;-45
2021/09/01 10:41:57;;;;;;;6.57;4.80;;;20.40;99.90;;;;;;5114441;27;20228;-46
2021/09/01 10:44:48;;;;;;;8.60;5.83;;;20.40;99.90;;;;;;5113581;27;20203;-42
2021/09/01 10:47:15;;;;;;;9.47;5.63;;;20.40;99.90;;;;;;5112054;27;20224;-49
2021/09/01 10:49:59;;;;;;;9.50;5.60;;;20.50;99.90;;;;;;5113118;27;20188;-48
2021/09/01 10:52:46;;;;;;;10.10;5.77;;;20.50;99.90;;;;;;5104026;27;20213;-42
2021/09/01 10:55:13;;;;;;;8.73;5.70;;;20.50;99.90;;;;;;5117034;27;20565;-48
2021/09/01 10:57:39;;;;;;;8.00;6.03;;;20.50;99.90;;;;;;5103685;27;20833;-44
2021/09/01 11:00:16;;;;;;;11.43;6.07;;;20.60;99.90;;;;;;5098290;27;20193;-47
2021/09/01 11:02:50;;;;;;;6.73;5.90;;;20.70;99.90;;;;;;5112165;27;20233;-45
2021/09/01 11:05:23;;;;;;;6.07;5.20;;;20.70;99.90;;;;;;5109159;27;20695;-44
2021/09/01 11:07:56;;;;;;;9.43;5.97;;;20.80;99.90;;;;;;5102000;27;20197;-48
2021/09/01 11:10:23;;;;;;;8.47;5.30;;;20.90;99.90;;;;;;5110351;27;20201;-45
2021/09/01 11:12:58;;;;;;;10.07;6.67;;;20.90;99.90;;;;;;5103271;27;20209;-49
2021/09/01 11:15:26;;;;;;;9.30;5.60;;;20.90;99.90;;;;;;5123222;27;20197;-48
2021/09/01 11:18:05;;;;;;;10.70;5.83;;;20.90;99.90;;;;;;5110693;27;20204;-46
2021/09/01 11:20:31;;;;;;;8.60;5.37;;;21.00;99.90;;;;;;5108814;27;20210;-46
2021/09/01 11:23:01;;;;;;;7.80;5.50;;;21.20;99.90;;;;;;5099461;27;20228;-48
2021/09/01 11:25:28;;;;;;;7.83;5.17;;;21.30;99.90;;;;;;5114515;27;20234;-45
2021/09/01 11:27:57;;;;;;;9.50;5.70;;;21.30;99.90;;;;;;5109980;27;20200;-46
2021/09/01 11:30:30;;;;;;;9.20;5.60;;;21.30;99.90;;;;;;5114132;27;20216;-46
2021/09/01 11:32:57;;;;;;;8.50;5.45;;;21.40;99.90;;;;;;5117487;27;20217;-47
2021/09/01 11:35:25;;;;;;;6.47;5.70;;;21.30;99.90;;;;;;5109712;27;20201;-48
2021/09/01 11:37:56;;;;;;;6.25;5.70;;;21.50;99.90;;;;;;5099516;27;20309;-46
2021/09/01 11:40:31;;;;;;;6.87;5.53;;;21.50;99.90;;;;;;5111777;27;20203;-46
2021/09/01 11:42:58;;;;;;;8.63;5.37;;;21.50;99.90;;;;;;5103119;27;21583;-49
2021/09/01 11:45:26;;;;;;;8.23;5.00;;;21.40;99.90;;;;;;5113900;27;20193;-47
2021/09/01 11:47:59;;;;;;;9.73;6.00;;;21.40;99.90;;;;;;5107685;27;20927;-46
2021/09/01 11:50:26;;;;;;;7.28;5.22;;;21.40;99.90;;;;;;5108218;27;20205;-48
2021/09/01 11:52:54;;;;;;;6.35;4.88;;;21.30;99.90;;;;;;5102852;27;20221;-45
2021/09/01 11:55:23;;;;;;;5.80;5.03;;;21.30;99.90;;;;;;5130800;27;20559;-47
2021/09/01 11:57:49;;;;;;;5.70;5.20;;;21.40;99.90;;;;;;5114015;27;20274;-46
2021/09/01 12:00:17;;;;;;;5.15;4.40;;;21.40;99.90;;;;;;5120834;27;20283;-46
2021/09/01 12:02:49;;;;;;;8.77;5.18;;;21.30;99.90;;;;;;5105345;27;20213;-45
2021/09/01 12:05:28;;;;;;;11.35;5.00;;;21.30;99.90;;;;;;5116392;28;20203;-45
2021/09/01 12:07:55;;;;;;;13.80;9.33;;;21.30;99.90;;;;;;5119251;27;20293;-45
2021/09/01 12:10:21;;;;;;;5.13;4.57;;;21.30;99.90;;;;;;5103646;27;20200;-47
2021/09/01 12:12:48;;;;;;;5.88;4.72;;;21.30;99.90;;;;;;5117637;27;20304;-44
2021/09/01 12:15:16;;;;;;;5.97;4.68;;;21.50;99.90;;;;;;5122816;27;20204;-50
2021/09/01 12:18:00;;;;;;;6.75;5.10;;;21.60;99.90;;;;;;5107130;28;20293;-49
2021/09/01 12:20:26;;;;;;;6.75;4.95;;;21.70;99.90;;;;;;5118891;27;22038;-45
2021/09/01 12:22:53;;;;;;;5.50;4.25;;;21.70;99.90;;;;;;5114272;27;20216;-47
2021/09/01 12:25:22;;;;;;;5.45;4.55;;;21.80;99.90;;;;;;5116765;27;20204;-44
2021/09/01 12:28:00;;;;;;;6.68;4.75;;;21.90;99.90;;;;;;5124738;27;20458;-46
2021/09/01 12:30:28;;;;;;;7.25;5.35;;;22.20;99.90;;;;;;5121176;27;20694;-47
2021/09/01 12:32:58;;;;;;;7.10;5.18;;;22.20;99.90;;;;;;5122049;27;20920;-46
2021/09/01 12:35:27;;;;;;;8.90;5.13;;;22.20;99.90;;;;;;5123711;27;20200;-47
2021/09/01 12:37:57;;;;;;;7.22;5.07;;;22.20;99.90;;;;;;5105029;28;20213;-46
2021/09/01 12:40:28;;;;;;;5.13;4.43;;;22.10;99.90;;;;;;5103412;27;20272;-49
2021/09/01 12:42:59;;;;;;;6.97;4.88;;;22.20;99.90;;;;;;5119458;27;20304;-50